Time;durP1;ratioP1;P1;durP2;ratioP2;P2;SDS_P1;SDS_P2;PMS_P1;PMS_P2;Temp;Humidity;BMP_temperature;BMP_pressure;BME280_temperature;BME280_humidity;BME280_pressure;Samples;Min_cycle;Max_cycle;Signal;HPM_P1;HPM_P2
2024/01/23 00:02:00;;;;;;;36.03;14.20;;;;;;;-2.98;nan;101312.06;5055088;28;20037;-69
2024/01/23 00:04:26;;;;;;;41.30;14.13;;;;;;;-3.00;nan;101300.13;5060614;28;20143;-69
2024/01/23 00:06:51;;;;;;;37.08;14.38;;;;;;;-3.00;nan;101299.28;5056931;28;20136;-68
2024/01/23 00:09:17;;;;;;;31.23;13.07;;;;;;;-2.97;nan;101295.66;5055161;28;20079;-67
2024/01/23 00:11:42;;;;;;;31.88;13.75;;;;;;;-2.88;nan;101308.69;5058253;28;20545;-68
2024/01/23 00:14:08;;;;;;;37.03;13.80;;;;;;;-2.83;nan;101308.34;5058264;28;20022;-68
2024/01/23 00:16:34;;;;;;;31.33;13.35;;;;;;;-2.90;nan;101286.53;5059151;28;20029;-68
2024/01/23 00:18:59;;;;;;;38.28;14.82;;;;;;;-2.83;nan;101301.44;5054956;28;20497;-66
2024/01/23 00:21:24;;;;;;;40.78;14.70;;;;;;;-2.70;nan;101318.56;5058840;28;20024;-67
2024/01/23 00:23:51;;;;;;;34.58;13.63;;;;;;;-2.65;nan;101335.31;5057725;28;20103;-70
2024/01/23 00:26:16;;;;;;;37.45;13.90;;;;;;;-2.78;nan;101314.81;5060492;28;20041;-68
2024/01/23 00:28:42;;;;;;;38.83;15.95;;;;;;;-2.75;nan;101318.06;5061351;28;20032;-68
2024/01/23 00:31:07;;;;;;;37.60;15.00;;;;;;;-2.66;nan;101335.44;5057286;28;20029;-68
2024/01/23 00:33:33;;;;;;;41.95;16.63;;;;;;;-2.65;nan;101334.50;5059809;28;20043;-67
2024/01/23 00:35:58;;;;;;;43.42;16.85;;;;;;;-2.70;nan;101327.13;5055720;28;20033;-67
2024/01/23 00:38:24;;;;;;;50.03;17.35;;;;;;;-2.69;nan;101322.78;5060497;28;20033;-68
2024/01/23 00:40:49;;;;;;;52.03;19.83;;;;;;;-2.68;nan;101329.56;5061642;28;20060;-68
2024/01/23 00:43:14;;;;;;;57.30;22.02;;;;;;;-2.74;nan;101324.88;5064609;28;20055;-67
2024/01/23 00:45:40;;;;;;;53.70;21.50;;;;;;;-2.67;nan;101339.78;5058474;28;20154;-67
2024/01/23 00:48:06;;;;;;;58.70;22.95;;;;;;;-2.67;nan;101338.97;5058710;28;20060;-66
2024/01/23 00:50:32;;;;;;;56.08;22.58;;;;;;;-2.76;nan;101339.63;5063482;28;20471;-66
2024/01/23 00:52:57;;;;;;;57.33;21.60;;;;;;;-2.81;nan;101325.34;5063555;28;20032;-66
2024/01/23 00:55:23;;;;;;;56.85;21.02;;;;;;;-2.93;nan;101308.22;5067968;28;20029;-66
2024/01/23 00:57:48;;;;;;;63.00;21.35;;;;;;;-2.78;nan;101338.00;5061952;28;20020;-66
2024/01/23 01:00:14;;;;;;;56.17;21.95;;;;;;;-2.80;nan;101342.47;5061169;28;20906;-66
2024/01/23 01:02:40;;;;;;;55.13;20.75;;;;;;;-2.88;nan;101339.63;5060941;28;20084;-66
2024/01/23 01:05:05;;;;;;;52.88;20.23;;;;;;;-2.93;nan;101346.06;5063910;28;20513;-68
2024/01/23 01:07:31;;;;;;;59.50;20.17;;;;;;;-3.02;nan;101363.00;5061093;28;20029;-66
2024/01/23 01:09:57;;;;;;;55.90;21.77;;;;;;;-3.12;nan;101352.56;5060028;28;20095;-66
2024/01/23 01:12:23;;;;;;;66.93;22.83;;;;;;;-3.25;nan;101362.94;5062574;28;20490;-67
2024/01/23 01:14:48;;;;;;;49.45;20.58;;;;;;;-3.25;nan;101357.78;5067505;28;20035;-67
2024/01/23 01:17:14;;;;;;;51.45;20.40;;;;;;;-3.25;nan;101349.25;5061247;28;20024;-68
2024/01/23 01:19:39;;;;;;;58.60;21.92;;;;;;;-3.15;nan;101347.63;5063631;28;20032;-68
2024/01/23 01:22:05;;;;;;;52.92;20.67;;;;;;;-3.20;nan;101326.53;5062341;28;20036;-68
2024/01/23 01:24:31;;;;;;;58.97;21.35;;;;;;;-3.07;nan;101349.63;5060434;28;20028;-68
2024/01/23 01:26:57;;;;;;;50.30;20.27;;;;;;;-3.04;nan;101339.94;5056228;28;20521;-68
2024/01/23 01:29:23;;;;;;;58.05;21.48;;;;;;;-3.03;nan;101336.41;5062233;28;20025;-68
2024/01/23 01:31:48;;;;;;;55.40;19.85;;;;;;;-3.02;nan;101326.94;5061091;28;20501;-68
2024/01/23 01:34:14;;;;;;;48.67;18.85;;;;;;;-3.08;nan;101317.91;5051322;28;20032;-68
2024/01/23 01:36:39;;;;;;;49.25;18.73;;;;;;;-3.01;nan;101331.16;5049531;28;20096;-68
2024/01/23 01:39:06;;;;;;;48.55;19.27;;;;;;;-3.08;nan;101317.91;5058830;28;20100;-68
2024/01/23 01:41:32;;;;;;;48.08;18.85;;;;;;;-3.06;nan;101320.38;5063772;28;20032;-68
2024/01/23 01:43:58;;;;;;;48.42;18.92;;;;;;;-3.09;nan;101311.13;5062246;28;20021;-66
2024/01/23 01:46:25;;;;;;;41.15;17.38;;;;;;;-3.10;nan;101304.31;5065813;28;20036;-67
2024/01/23 01:48:52;;;;;;;44.45;18.25;;;;;;;-3.13;nan;101301.97;5059522;28;20028;-68
2024/01/23 01:51:20;;;;;;;40.75;16.40;;;;;;;-3.17;nan;101297.97;5058399;28;20025;-68
2024/01/23 01:53:48;;;;;;;41.35;17.35;;;;;;;-3.30;nan;101280.03;5061522;28;20021;-68
2024/01/23 01:56:14;;;;;;;45.03;17.15;;;;;;;-3.32;nan;101288.81;5057995;28;20024;-68
2024/01/23 01:58:40;;;;;;;43.45;17.88;;;;;;;-3.44;nan;101277.66;5065722;28;20040;-68
2024/01/23 02:01:06;;;;;;;45.03;17.45;;;;;;;-3.29;nan;101284.25;5056945;28;20405;-68
2024/01/23 02:03:31;;;;;;;39.00;15.43;;;;;;;-3.36;nan;101284.81;5058328;28;20037;-68
2024/01/23 02:05:59;;;;;;;42.60;17.15;;;;;;;-3.36;nan;101277.91;5055547;28;20035;-66
2024/01/23 02:08:26;;;;;;;43.25;16.52;;;;;;;-3.32;nan;101268.22;5060330;28;20120;-69
2024/01/23 02:10:54;;;;;;;39.97;16.10;;;;;;;-3.31;nan;101277.56;5060740;28;20120;-68
2024/01/23 02:13:19;;;;;;;40.45;15.30;;;;;;;-3.44;nan;101273.31;5056417;28;20027;-67
2024/01/23 02:15:45;;;;;;;42.38;16.40;;;;;;;-3.53;nan;101257.72;5059183;28;20016;-69
2024/01/23 02:18:10;;;;;;;39.90;16.92;;;;;;;-3.66;nan;101278.41;5061653;28;20028;-69
2024/01/23 02:20:35;;;;;;;40.35;16.63;;;;;;;-3.61;nan;101290.94;5061670;28;20028;-69
2024/01/23 02:23:01;;;;;;;42.38;16.48;;;;;;;-3.61;nan;101289.19;5059483;28;20177;-69
2024/01/23 02:25:26;;;;;;;43.80;17.60;;;;;;;-3.70;nan;101285.50;5062545;28;20052;-69
2024/01/23 02:27:53;;;;;;;41.78;15.95;;;;;;;-3.70;nan;101285.50;5065146;28;20035;-69
2024/01/23 02:30:19;;;;;;;38.85;16.58;;;;;;;-3.67;nan;101290.41;5063145;28;20016;-68
2024/01/23 02:32:44;;;;;;;44.88;16.85;;;;;;;-3.77;nan;101279.16;5059900;28;20043;-68
2024/01/23 02:35:10;;;;;;;37.60;16.05;;;;;;;-3.93;nan;101252.88;5058784;28;20120;-69
2024/01/23 02:37:39;;;;;;;36.67;16.27;;;;;;;-3.78;nan;101290.38;5062114;28;20457;-69
2024/01/23 02:40:05;;;;;;;41.58;16.58;;;;;;;-3.82;nan;101296.69;5055797;28;20033;-69
2024/01/23 02:42:32;;;;;;;46.83;17.60;;;;;;;-3.88;nan;101286.81;5058875;28;20028;-69
2024/01/23 02:44:57;;;;;;;46.65;17.13;;;;;;;-4.06;nan;101256.31;5060291;28;20032;-67
2024/01/23 02:47:23;;;;;;;44.00;16.65;;;;;;;-3.92;nan;101285.41;5058596;28;20112;-68
2024/01/23 02:49:49;;;;;;;48.22;17.27;;;;;;;-3.88;nan;101291.97;5059428;28;20024;-68
2024/01/23 02:52:14;;;;;;;43.30;17.08;;;;;;;-3.89;nan;101288.56;5058543;28;20056;-68
2024/01/23 02:54:39;;;;;;;45.63;17.73;;;;;;;-4.01;nan;101268.84;5059045;28;20664;-69
2024/01/23 02:57:05;;;;;;;44.22;18.00;;;;;;;-3.89;nan;101291.13;5062103;28;20028;-69
2024/01/23 02:59:30;;;;;;;42.88;16.83;;;;;;;-3.96;nan;101274.50;5057666;28;20483;-68
2024/01/23 03:01:56;;;;;;;46.97;17.55;;;;;;;-3.87;nan;101283.31;5058238;28;20093;-69
2024/01/23 03:04:21;;;;;;;46.15;17.63;;;;;;;-3.97;nan;101274.63;5057553;28;20406;-69
2024/01/23 03:06:47;;;;;;;40.05;17.40;;;;;;;-3.84;nan;101295.97;5057067;28;20028;-69
2024/01/23 03:09:13;;;;;;;42.58;16.52;;;;;;;-3.83;nan;101289.91;5059551;28;20533;-69
2024/01/23 03:11:42;;;;;;;43.33;17.77;;;;;;;-3.83;nan;101289.91;5072773;28;20460;-69
2024/01/23 03:14:08;;;;;;;48.35;17.27;;;;;;;-3.88;nan;101286.81;5061493;28;20062;-68
2024/01/23 03:16:33;;;;;;;43.30;17.65;;;;;;;-3.89;nan;101285.19;5056093;28;20426;-70
2024/01/23 03:18:59;;;;;;;43.97;17.23;;;;;;;-4.00;nan;101267.09;5059264;28;20114;-68
2024/01/23 03:21:24;;;;;;;42.80;17.00;;;;;;;-3.97;nan;101277.19;5057832;28;20044;-68
2024/01/23 03:23:50;;;;;;;49.85;17.10;;;;;;;-4.01;nan;101280.91;5057777;28;20111;-68
2024/01/23 03:26:15;;;;;;;51.10;18.58;;;;;;;-4.05;nan;101306.00;5058793;28;20043;-69
2024/01/23 03:28:41;;;;;;;46.05;17.35;;;;;;;-4.00;nan;101313.41;5061607;28;21533;-69
2024/01/23 03:31:06;;;;;;;47.15;17.85;;;;;;;-4.09;nan;101318.28;5064411;28;20025;-69
2024/01/23 03:33:33;;;;;;;129.50;38.25;;;;;;;-4.18;nan;101321.47;5057645;28;20039;-69
2024/01/23 03:35:58;;;;;;;94.47;31.75;;;;;;;-4.13;nan;101321.97;5056560;28;20048;-69
2024/01/23 03:38:24;;;;;;;66.32;22.67;;;;;;;-4.25;nan;101304.84;5065333;28;20068;-69
2024/01/23 03:40:49;;;;;;;47.63;17.88;;;;;;;-4.10;nan;101328.66;5058741;28;20028;-67
2024/01/23 03:43:16;;;;;;;55.92;19.13;;;;;;;-4.41;nan;101281.91;5057890;28;20131;-68
2024/01/23 03:45:41;;;;;;;61.35;21.15;;;;;;;-4.10;nan;101344.91;5056947;28;20100;-69
2024/01/23 03:48:07;;;;;;;52.70;19.58;;;;;;;-4.12;nan;101336.50;5064534;28;20482;-69
2024/01/23 03:50:33;;;;;;;59.67;21.27;;;;;;;-4.02;nan;101328.13;5055895;28;20585;-68
2024/01/23 03:52:58;;;;;;;49.33;18.48;;;;;;;-4.09;nan;101323.41;5055944;28;20032;-67
2024/01/23 03:55:25;;;;;;;47.53;15.98;;;;;;;-3.99;nan;101335.66;5055691;28;20559;-68
2024/01/23 03:57:51;;;;;;;40.92;15.18;;;;;;;-4.24;nan;101290.22;5060500;28;20036;-69
2024/01/23 04:00:17;;;;;;;37.28;14.38;;;;;;;-4.03;nan;101318.78;5057606;28;20740;-68
2024/01/23 04:02:42;;;;;;;33.65;12.40;;;;;;;-3.94;nan;101333.56;5056384;28;20053;-69
2024/01/23 04:05:08;;;;;;;33.60;13.25;;;;;;;-4.24;nan;101295.38;5058685;28;21252;-69
2024/01/23 04:07:34;;;;;;;35.08;12.18;;;;;;;-3.87;nan;101339.94;5058301;28;20036;-69
2024/01/23 04:10:00;;;;;;;29.48;11.70;;;;;;;-3.96;nan;101322.56;5058404;28;20029;-70
2024/01/23 04:12:26;;;;;;;29.70;12.05;;;;;;;-3.78;nan;101357.31;5056099;28;20029;-69
2024/01/23 04:14:51;;;;;;;34.58;13.00;;;;;;;-3.85;nan;101338.88;5056420;28;20025;-68
2024/01/23 04:17:17;;;;;;;36.42;13.00;;;;;;;-3.74;nan;101350.97;5056584;28;20047;-67
2024/01/23 04:19:43;;;;;;;36.47;13.60;;;;;;;-3.70;nan;101343.88;5057661;28;20025;-68
2024/01/23 04:22:09;;;;;;;39.08;12.48;;;;;;;-3.80;nan;101320.56;5059510;28;20405;-68
2024/01/23 04:24:38;;;;;;;35.92;13.10;;;;;;;-3.65;nan;101349.53;5055530;28;20043;-70
2024/01/23 04:27:04;;;;;;;35.67;12.20;;;;;;;-3.64;nan;101346.84;5059448;28;20086;-69
2024/01/23 04:29:30;;;;;;;32.30;12.98;;;;;;;-3.71;nan;101337.06;5057787;28;20434;-69
2024/01/23 04:31:56;;;;;;;38.38;13.63;;;;;;;-3.60;nan;101359.50;5058993;28;20711;-69
2024/01/23 04:34:21;;;;;;;39.45;14.65;;;;;;;-3.73;nan;101338.97;5061063;28;20032;-67
2024/01/23 04:36:48;;;;;;;36.85;13.43;;;;;;;-3.70;nan;101329.25;5056194;28;20063;-68
2024/01/23 04:39:14;;;;;;;37.55;13.43;;;;;;;-3.74;nan;101325.25;5065239;28;20043;-70
2024/01/23 04:41:40;;;;;;;37.25;13.68;;;;;;;-3.58;nan;101343.00;5055505;28;20021;-68
2024/01/23 04:44:05;;;;;;;36.92;13.50;;;;;;;-3.59;nan;101354.25;5060989;28;20403;-68
2024/01/23 04:46:31;;;;;;;44.67;15.25;;;;;;;-3.70;nan;101352.41;5058326;28;20092;-68
2024/01/23 04:48:56;;;;;;;38.92;14.18;;;;;;;-3.77;nan;101340.91;5055334;28;20040;-69
2024/01/23 04:51:22;;;;;;;35.88;13.95;;;;;;;-3.73;nan;101331.25;5053413;28;20021;-69
2024/01/23 04:53:51;;;;;;;40.90;15.43;;;;;;;-3.67;nan;101331.59;5056350;28;20974;-67
2024/01/23 04:56:17;;;;;;;36.85;13.25;;;;;;;-3.63;nan;101334.78;5056452;28;20052;-68
2024/01/23 04:58:42;;;;;;;35.13;13.57;;;;;;;-3.62;nan;101331.28;5057292;28;21162;-69
2024/01/23 05:01:08;;;;;;;38.85;14.82;;;;;;;-3.69;nan;101310.31;5056963;28;20025;-69
2024/01/23 05:03:33;;;;;;;38.42;15.52;;;;;;;-3.72;nan;101305.38;5047531;28;20085;-70
2024/01/23 05:05:59;;;;;;;41.83;15.82;;;;;;;-3.61;nan;101325.22;5056616;28;20029;-69
2024/01/23 05:08:24;;;;;;;47.53;17.50;;;;;;;-3.57;nan;101333.53;5053493;28;20037;-68
2024/01/23 05:10:50;;;;;;;41.95;16.92;;;;;;;-3.60;nan;101318.31;5039185;28;20029;-68
2024/01/23 05:13:15;;;;;;;43.13;16.27;;;;;;;-3.58;nan;101319.84;5057294;28;20033;-69
2024/01/23 05:15:41;;;;;;;42.88;16.77;;;;;;;-3.56;nan;101315.41;5056688;28;20021;-69
2024/01/23 05:18:07;;;;;;;38.65;16.27;;;;;;;-3.63;nan;101309.88;5061717;28;20028;-69
2024/01/23 05:20:34;;;;;;;44.97;16.85;;;;;;;-3.52;nan;101334.84;5057980;28;20024;-67
2024/01/23 05:23:01;;;;;;;36.78;14.98;;;;;;;-3.55;nan;101341.97;5061204;28;20043;-69
2024/01/23 05:25:26;;;;;;;41.75;15.48;;;;;;;-3.60;nan;101334.56;5061384;28;20418;-69
2024/01/23 05:27:52;;;;;;;42.88;15.40;;;;;;;-3.64;nan;101333.13;5061557;28;20031;-69
2024/01/23 05:30:17;;;;;;;41.42;15.00;;;;;;;-3.54;nan;101351.34;5059541;28;20023;-68
2024/01/23 05:32:44;;;;;;;37.85;15.07;;;;;;;-3.54;nan;101346.19;5058049;28;20024;-69
2024/01/23 05:35:10;;;;;;;35.45;13.20;;;;;;;-3.50;nan;101348.41;5061264;28;20547;-69
2024/01/23 05:37:35;;;;;;;37.75;13.90;;;;;;;-3.49;nan;101357.00;5061817;28;20061;-69
2024/01/23 05:40:03;;;;;;;41.75;14.30;;;;;;;-3.50;nan;101363.88;5057842;28;20916;-69
2024/01/23 05:42:29;;;;;;;33.30;12.35;;;;;;;-3.47;nan;101367.97;5061868;28;20020;-69
2024/01/23 05:44:54;;;;;;;34.78;13.27;;;;;;;-3.49;nan;101380.97;5066575;28;20040;-70
2024/01/23 05:47:19;;;;;;;30.33;12.50;;;;;;;-3.57;nan;101359.28;5064250;28;20020;-69
2024/01/23 05:49:45;;;;;;;33.35;12.15;;;;;;;-3.48;nan;101381.78;5059989;28;20112;-69
2024/01/23 05:52:10;;;;;;;33.72;12.23;;;;;;;-3.49;nan;101373.25;5064059;28;20024;-68
2024/01/23 05:54:38;;;;;;;35.78;12.65;;;;;;;-3.47;nan;101393.72;5062090;28;20449;-68
2024/01/23 05:57:03;;;;;;;32.17;12.15;;;;;;;-3.51;nan;101394.88;5062345;28;20033;-68
2024/01/23 05:59:29;;;;;;;29.55;12.00;;;;;;;-3.56;nan;101396.97;5065712;28;20102;-68
2024/01/23 06:01:55;;;;;;;31.52;12.35;;;;;;;-3.57;nan;101398.69;5058448;28;20037;-69
2024/01/23 06:04:20;;;;;;;37.92;13.35;;;;;;;-3.39;nan;101422.34;5068803;28;20043;-69
2024/01/23 06:06:46;;;;;;;45.50;14.45;;;;;;;-3.54;nan;101397.69;5062273;28;20116;-67
2024/01/23 06:09:11;;;;;;;45.67;14.60;;;;;;;-3.40;nan;101412.13;5059287;28;20020;-68
2024/01/23 06:11:39;;;;;;;37.40;12.75;;;;;;;-3.43;nan;101413.19;5059246;28;20782;-68
2024/01/23 06:14:05;;;;;;;34.13;12.85;;;;;;;-3.35;nan;101423.78;5062344;28;20147;-68
2024/01/23 06:16:30;;;;;;;31.05;12.02;;;;;;;-3.36;nan;101426.44;5060919;28;20107;-66
2024/01/23 06:18:56;;;;;;;33.83;12.50;;;;;;;-3.36;nan;101424.69;5059233;28;20052;-68
2024/01/23 06:21:21;;;;;;;34.67;12.65;;;;;;;-3.47;nan;101404.88;5055204;28;20028;-67
2024/01/23 06:23:47;;;;;;;32.97;11.93;;;;;;;-3.27;nan;101444.63;5060292;28;20040;-68
2024/01/23 06:26:13;;;;;;;31.25;11.48;;;;;;;-3.35;nan;101423.78;5061354;28;20104;-68
2024/01/23 06:28:38;;;;;;;32.60;10.63;;;;;;;-3.21;nan;101448.53;5057450;28;20104;-66
2024/01/23 06:31:04;;;;;;;30.13;11.43;;;;;;;-3.30;nan;101432.00;5061672;28;20029;-68
2024/01/23 06:33:31;;;;;;;32.92;11.45;;;;;;;-3.17;nan;101444.00;5057690;28;20025;-67
2024/01/23 06:35:57;;;;;;;30.98;11.15;;;;;;;-3.20;nan;101442.47;5056927;28;20120;-67
2024/01/23 06:38:22;;;;;;;29.17;11.02;;;;;;;-3.11;nan;101441.81;5060413;28;20028;-69
2024/01/23 06:40:48;;;;;;;31.20;11.90;;;;;;;-3.15;nan;101434.41;5060471;28;20029;-71
2024/01/23 06:43:13;;;;;;;28.23;10.85;;;;;;;-3.05;nan;101454.22;5058832;28;20526;-68
2024/01/23 06:45:38;;;;;;;30.92;12.27;;;;;;;-3.00;nan;101451.31;5060122;28;20040;-68
2024/01/23 06:48:04;;;;;;;31.67;11.88;;;;;;;-2.93;nan;101449.94;5063554;28;20105;-68
2024/01/23 06:50:30;;;;;;;34.30;10.63;;;;;;;-2.88;nan;101452.19;5060790;28;20078;-67
2024/01/23 06:52:56;;;;;;;29.88;11.20;;;;;;;-2.88;nan;101439.31;5059466;28;20028;-70
2024/01/23 06:55:21;;;;;;;29.48;10.88;;;;;;;-2.76;nan;101459.03;5061692;28;20817;-70
2024/01/23 06:57:47;;;;;;;33.80;11.40;;;;;;;-2.70;nan;101474.06;5058560;28;20108;-69
2024/01/23 07:00:13;;;;;;;28.65;10.65;;;;;;;-2.82;nan;101450.00;5058749;28;20068;-69
2024/01/23 07:02:38;;;;;;;35.03;10.23;;;;;;;-2.60;nan;101490.50;5055993;28;20056;-69
2024/01/23 07:05:04;;;;;;;33.25;11.77;;;;;;;-2.57;nan;101484.28;5061646;28;20536;-70
2024/01/23 07:07:30;;;;;;;34.70;11.05;;;;;;;-2.68;nan;101461.88;5060561;28;20119;-69
2024/01/23 07:09:56;;;;;;;34.65;12.32;;;;;;;-2.44;nan;101490.22;5060632;28;20095;-71
2024/01/23 07:12:21;;;;;;;34.28;12.30;;;;;;;-2.37;nan;101503.44;5060772;28;20459;-70
2024/01/23 07:14:46;;;;;;;35.53;12.27;;;;;;;-2.38;nan;101491.50;5061427;28;20032;-72
2024/01/23 07:17:12;;;;;;;33.08;11.57;;;;;;;-2.26;nan;101505.25;5061462;28;20062;-71
2024/01/23 07:19:37;;;;;;;31.73;10.73;;;;;;;-2.22;nan;101511.84;5060925;28;20542;-69
2024/01/23 07:22:03;;;;;;;37.97;12.13;;;;;;;-2.44;nan;101479.03;5061452;28;20111;-68
2024/01/23 07:24:29;;;;;;;31.60;11.88;;;;;;;-2.22;nan;101515.22;5058070;28;20028;-67
2024/01/23 07:26:54;;;;;;;40.70;13.05;;;;;;;-2.11;nan;101529.91;5048748;28;20029;-66
2024/01/23 07:29:20;;;;;;;34.42;12.77;;;;;;;-2.21;nan;101509.13;5058789;28;20390;-67
2024/01/23 07:31:45;;;;;;;32.70;12.52;;;;;;;-2.04;nan;101533.66;5059156;28;20105;-67
2024/01/23 07:34:10;;;;;;;36.63;12.25;;;;;;;-2.06;nan;101527.81;5054933;28;20033;-66
2024/01/23 07:36:36;;;;;;;30.98;11.27;;;;;;;-2.05;nan;101521.72;5064173;28;20084;-66
2024/01/23 07:39:02;;;;;;;33.00;11.38;;;;;;;-1.90;nan;101537.00;5060431;28;20021;-66
2024/01/23 07:41:28;;;;;;;28.25;10.82;;;;;;;-1.88;nan;101545.44;5058713;28;20483;-65
2024/01/23 07:43:53;;;;;;;27.90;10.32;;;;;;;-1.95;nan;101530.41;5061797;28;20105;-65
2024/01/23 07:46:20;;;;;;;30.10;10.73;;;;;;;-1.84;nan;101546.88;5059938;28;20026;-66
2024/01/23 07:48:46;;;;;;;31.88;12.00;;;;;;;-1.87;nan;101529.81;5059613;28;20032;-65
2024/01/23 07:51:11;;;;;;;35.40;11.63;;;;;;;-1.87;nan;101521.25;5060628;28;20021;-66
2024/01/23 07:53:37;;;;;;;30.13;11.07;;;;;;;-1.76;nan;101542.75;5057529;28;20703;-66
2024/01/23 07:56:03;;;;;;;28.00;10.68;;;;;;;;;;5058000;28;20048;-65
2024/01/23 07:58:28;;;;;;;33.72;12.02;;;;;;;;;;5058684;28;20131;-64
2024/01/23 08:00:53;;;;;;;29.38;11.30;;;;;;;;;;5058658;28;20670;-67
2024/01/23 08:03:19;;;;;;;31.40;12.35;;;;;;;;;;5062983;28;20047;-67
2024/01/23 08:05:44;;;;;;;33.83;12.87;;;;;;;-1.64;nan;101546.16;5057970;28;20035;-66
2024/01/23 08:08:10;;;;;;;38.90;13.75;;;;;;;-1.72;nan;101535.59;5060921;28;20277;-67
2024/01/23 08:10:37;;;;;;;33.45;12.88;;;;;;;-1.89;nan;101503.31;5041812;28;20044;-70
2024/01/23 08:13:03;;;;;;;34.17;13.27;;;;;;;-1.71;nan;101537.22;5064644;28;20032;-67
2024/01/23 08:15:29;;;;;;;40.65;14.63;;;;;;;-1.67;nan;101537.84;5058258;28;20029;-67
2024/01/23 08:17:55;;;;;;;40.75;14.82;;;;;;;-1.67;nan;101536.06;5057990;28;20124;-67
2024/01/23 08:20:21;;;;;;;42.40;15.25;;;;;;;-1.47;nan;101564.72;5050024;28;20033;-69
2024/01/23 08:22:47;;;;;;;41.88;15.00;;;;;;;-1.45;nan;101566.25;5059575;28;20393;-68
2024/01/23 08:25:12;;;;;;;41.33;15.48;;;;;;;-1.39;nan;101568.38;5062467;28;20039;-69
2024/01/23 08:27:38;;;;;;;42.33;15.13;;;;;;;-1.40;nan;101565.88;5061712;28;20033;-68
2024/01/23 08:30:04;;;;;;;39.53;15.70;;;;;;;-1.42;nan;101560.00;5062131;28;20035;-69
2024/01/23 08:32:29;;;;;;;44.53;17.02;;;;;;;-1.25;nan;101589.72;5064107;28;20487;-70
2024/01/23 08:34:55;;;;;;;39.95;15.75;;;;;;;-1.23;nan;101583.50;5058854;28;20036;-74
2024/01/23 08:37:20;;;;;;;42.92;17.00;;;;;;;-1.24;nan;101584.44;5057612;28;20041;-73
2024/01/23 08:39:46;;;;;;;39.90;15.90;;;;;;;-1.21;nan;101584.19;5057789;28;20044;-72
2024/01/23 08:42:11;;;;;;;40.55;17.23;;;;;;;-1.25;nan;101587.94;5060112;28;20024;-72
2024/01/23 08:44:37;;;;;;;45.45;17.80;;;;;;;-1.25;nan;101585.38;5057739;28;20024;-73
2024/01/23 08:47:03;;;;;;;47.88;17.85;;;;;;;-1.42;nan;101572.94;5054846;28;20081;-74
2024/01/23 08:49:29;;;;;;;45.28;17.60;;;;;;;-1.30;nan;101580.56;5059477;28;20060;-73
2024/01/23 08:51:55;;;;;;;47.28;17.65;;;;;;;-1.33;nan;101583.38;5059831;28;20063;-71
2024/01/23 08:54:20;;;;;;;51.55;18.52;;;;;;;-1.12;nan;101621.44;5059932;28;20037;-67
2024/01/23 08:56:46;;;;;;;48.33;20.38;;;;;;;-1.25;nan;101613.78;5058359;28;20482;-69
2024/01/23 08:59:13;;;;;;;59.55;23.42;;;;;;;-1.27;nan;101613.09;5058750;28;20021;-69
2024/01/23 09:01:39;;;;;;;62.88;25.65;;;;;;;-1.11;nan;101634.22;5059522;28;20028;-69
2024/01/23 09:04:05;;;;;;;64.97;25.05;;;;;;;-1.09;nan;101647.88;5061724;28;20025;-69
2024/01/23 09:06:31;;;;;;;69.05;24.70;;;;;;;-1.10;nan;101648.00;5061416;28;20382;-68
2024/01/23 09:08:56;;;;;;;56.63;25.00;;;;;;;-1.08;nan;101652.13;5059614;28;20028;-69
2024/01/23 09:11:22;;;;;;;65.47;24.35;;;;;;;-1.07;nan;101664.09;5062386;28;20027;-68
2024/01/23 09:13:47;;;;;;;58.50;23.20;;;;;;;-1.06;nan;101651.97;5060588;28;20035;-70
2024/01/23 09:16:13;;;;;;;70.63;27.27;;;;;;;-1.19;nan;101631.44;5061025;28;20021;-69
2024/01/23 09:18:40;;;;;;;69.35;25.02;;;;;;;-1.20;nan;101627.19;5061768;28;20032;-69
2024/01/23 09:21:08;;;;;;;56.95;23.73;;;;;;;-1.34;nan;101602.41;5064438;28;20119;-69
2024/01/23 09:23:33;;;;;;;74.35;30.60;;;;;;;-1.03;nan;101653.50;5061476;28;20036;-70
2024/01/23 09:25:59;;;;;;;61.33;24.08;;;;;;;-1.20;nan;101629.75;5060388;28;20028;-69
2024/01/23 09:28:24;;;;;;;59.05;24.95;;;;;;;-1.07;nan;101658.09;5061007;28;20083;-68
2024/01/23 09:30:50;;;;;;;58.10;25.25;;;;;;;-1.01;nan;101661.97;5060425;28;20490;-69
2024/01/23 09:33:15;;;;;;;68.00;26.25;;;;;;;-0.99;nan;101662.66;5058899;28;20394;-70
2024/01/23 09:35:41;;;;;;;69.05;27.52;;;;;;;-1.01;nan;101660.19;5060985;28;20039;-68
2024/01/23 09:38:06;;;;;;;66.85;26.70;;;;;;;-1.03;nan;101656.09;5059150;28;20981;-72
2024/01/23 09:40:32;;;;;;;69.68;28.98;;;;;;;-1.00;nan;101656.69;5063850;28;20039;-71
2024/01/23 09:42:57;;;;;;;77.68;30.38;;;;;;;-0.94;nan;101655.38;5059472;28;20037;-72
2024/01/23 09:45:29;;;;;;;72.38;30.17;;;;;;;-0.98;nan;101644.47;5059057;28;20021;-71
2024/01/23 09:47:55;;;;;;;73.30;30.13;;;;;;;-0.93;nan;101646.69;5060172;28;20115;-70
2024/01/23 09:50:25;;;;;;;77.78;31.70;;;;;;;-0.86;nan;101640.13;5060476;28;20020;-70
2024/01/23 09:52:50;;;;;;;;;;;;;;;-0.76;nan;101648.78;5059004;28;20033;-73
2024/01/23 09:55:16;;;;;;;83.25;33.85;;;;;;;-0.62;nan;101644.28;5066509;28;19912;-73
2024/01/23 09:57:43;;;;;;;85.78;34.90;;;;;;;-0.67;nan;101626.53;5062785;28;20035;-74
2024/01/23 10:00:12;;;;;;;80.72;33.53;;;;;;;-0.50;nan;101659.69;5056569;28;20028;-74
2024/01/23 10:02:42;;;;;;;77.65;30.58;;;;;;;-0.64;nan;101652.19;5059944;28;20020;-75
2024/01/23 10:05:09;;;;;;;79.10;33.17;;;;;;;-0.56;nan;101672.28;5059603;28;20020;-74
2024/01/23 10:07:39;;;;;;;80.10;33.30;;;;;;;-0.71;nan;101657.00;5059227;28;20059;-74
2024/01/23 10:10:15;;;;;;;84.35;34.13;;;;;;;-0.67;nan;101660.16;5058493;28;20021;-73
2024/01/23 10:12:44;;;;;;;77.57;33.83;;;;;;;-0.61;nan;101666.63;5057380;28;20025;-74
2024/01/23 10:15:16;;;;;;;89.57;34.42;;;;;;;-0.54;nan;101672.97;5058005;28;20024;-72
2024/01/23 10:17:43;;;;;;;85.20;35.38;;;;;;;-0.76;nan;101627.28;5060049;28;20032;-74
2024/01/23 10:20:09;;;;;;;86.05;38.20;;;;;;;-0.50;nan;101653.69;5062180;28;20060;-74
2024/01/23 10:22:35;;;;;;;92.05;38.03;;;;;;;-0.49;nan;101639.78;5061957;28;20060;-74
2024/01/23 10:25:20;;;;;;;92.20;38.85;;;;;;;-0.57;nan;101627.47;5061410;28;20029;-75
2024/01/23 10:27:53;;;;;;;91.95;39.15;;;;;;;-0.38;nan;101647.53;5057858;28;20056;-75
2024/01/23 10:30:18;;;;;;;89.15;38.88;;;;;;;-0.49;nan;101619.09;5062976;28;20109;-74
2024/01/23 10:32:46;;;;;;;96.50;41.60;;;;;;;-0.36;nan;101640.47;5066237;28;20114;-75
2024/01/23 10:35:11;;;;;;;105.18;42.13;;;;;;;-0.34;nan;101638.56;5062297;28;20017;-72
2024/01/23 10:37:40;;;;;;;105.35;42.08;;;;;;;-0.60;nan;101596.66;5060244;28;20388;-74
2024/01/23 10:40:10;;;;;;;108.43;45.22;;;;;;;-0.38;nan;101616.47;5059497;28;20028;-73
2024/01/23 10:42:36;;;;;;;107.32;45.80;;;;;;;-0.41;nan;101606.34;5058295;28;20017;-73
2024/01/23 10:45:04;;;;;;;102.25;44.65;;;;;;;-0.17;nan;101639.78;5065286;28;20561;-73
2024/01/23 10:47:30;;;;;;;103.60;44.38;;;;;;;-0.25;nan;101624.06;5061134;28;20036;-73
2024/01/23 10:49:56;;;;;;;105.25;45.45;;;;;;;-0.13;nan;101637.78;5061328;28;20020;-73
2024/01/23 10:52:25;;;;;;;103.85;44.10;;;;;;;-0.20;nan;101621.09;5058182;28;20066;-73
2024/01/23 10:54:53;;;;;;;106.43;45.47;;;;;;;-0.04;nan;101653.41;5057437;28;20062;-74
2024/01/23 10:57:25;;;;;;;112.03;46.35;;;;;;;0.03;nan;101650.31;5060636;28;20039;-73
2024/01/23 10:59:51;;;;;;;109.95;46.22;;;;;;;-0.06;nan;101631.97;5063848;28;20048;-73
2024/01/23 11:02:42;;;;;;;105.30;44.83;;;;;;;0.07;nan;101642.16;5060724;28;20028;-73
2024/01/23 11:05:08;;;;;;;106.30;45.67;;;;;;;-0.04;nan;101631.88;5056520;28;20024;-75
2024/01/23 11:07:54;;;;;;;114.40;47.00;;;;;;;;;;5060414;28;20028;-75
2024/01/23 11:10:26;;;;;;;106.93;44.78;;;;;;;;;;5056031;28;20103;-75
2024/01/23 11:13:11;;;;;;;116.18;47.13;;;;;;;;;;5064523;28;20123;-74
2024/01/23 11:15:36;;;;;;;107.55;47.58;;;;;;;;;;5057468;28;20027;-75
2024/01/23 11:18:20;;;;;;;106.97;45.50;;;;;;;;;;5060231;28;20028;-75
2024/01/23 11:21:00;;;;;;;96.75;44.85;;;;;;;;;;5055222;28;20025;-74
2024/01/23 11:23:25;;;;;;;89.35;41.72;;;;;;;;;;5055935;28;20069;-75
2024/01/23 11:25:57;;;;;;;96.85;43.90;;;;;;;;;;5059949;28;20480;-74
2024/01/23 11:28:23;;;;;;;99.82;43.58;;;;;;;;;;5057012;28;20048;-74